Guide — WDE7328 — position and weather

sailwx.info

Track history (hours):
 
Tides and Currents Weather Stations Pressure Air Temp Water Temp Dewpoint Dewpoint Depression Visibility Wind Speed Wind Dir Waves Ship Positions

Guide

Owner: Crowley Marine Services, SEATTLE, WA. More information available from US FCC via Universal Licensing System and Coast Guard Vessel Documentation Center.

Last reported at 2016-Feb-06 02:28 UTC. Time now 2016-Feb-06 03:03 UTC.
Position N 47°15' W 122°26'.

Length 34 m; draft 5.1 m.

Type: Tug. MMSI: 366759530.

Date/timePositionNaut miles runAvg speedWind from/ knotsBaromVisibWave heightAir tempDewpointWater temp
2016-Feb-06 02:28N 47°15' W 122°26'0 0.0
2016-Feb-06 01:33N 47°15' W 122°26'0 0.0
2016-Feb-06 00:33N 47°15' W 122°26'2 1.6
2016-Feb-05 23:33N 47°16' W 122°24'1 1.0
2016-Feb-05 22:32N 47°16' W 122°23'0 0.2
2016-Feb-05 21:16N 47°16' W 122°23'1 0.7
2016-Feb-05 20:33N 47°15' W 122°23'2 2.1
2016-Feb-05 19:33N 47°15' W 122°26'0 0.0
2016-Feb-05 18:33N 47°15' W 122°26'0 0.0
2016-Feb-05 17:23N 47°15' W 122°26'0 0.0
2016-Feb-05 15:30N 47°15' W 122°26'0 0.0
2016-Feb-05 14:33N 47°15' W 122°26'2 2.0
2016-Feb-05 13:33N 47°16' W 122°23'2 2.3
2016-Feb-05 12:33N 47°17' W 122°26'3 2.7
2016-Feb-05 11:30N 47°15' W 122°23'0 0.0
2016-Feb-05 10:28N 47°15' W 122°23'3 0.4
2016-Feb-05 03:07N 47°18' W 122°26'0 0.7
2016-Feb-05 02:33N 47°17' W 122°26'2 2.0
2016-Feb-05 01:30N 47°16' W 122°24'1 0.6
2016-Feb-05 00:32N 47°15' W 122°23'2 2.4
2016-Feb-04 23:33N 47°16' W 122°26'1 1.2
2016-Feb-04 22:33N 47°15' W 122°26'0 0.0
2016-Feb-04 21:33N 47°15' W 122°26'0 0.0
2016-Feb-04 20:33N 47°15' W 122°26'0 0.0
2016-Feb-04 19:33N 47°15' W 122°26'0 0.0
2016-Feb-04 18:33N 47°15' W 122°26'0 0.0
2016-Feb-04 17:32N 47°15' W 122°26'1 1.4
2016-Feb-04 16:33N 47°17' W 122°26'1 1.3
2016-Feb-04 15:33N 47°16' W 122°24'1 0.5
2016-Feb-04 14:29N 47°17' W 122°25'1 1.5
2016-Feb-04 13:30N 47°16' W 122°23'3 2.9
2016-Feb-04 12:33N 47°18' W 122°26'0 0.3
2016-Feb-04 11:33N 47°18' W 122°26'0 0.0
2016-Feb-04 10:33N 47°18' W 122°26'0 0.0
2016-Feb-04 09:31N 47°18' W 122°26'0 0.4
2016-Feb-04 08:33N 47°18' W 122°26'1 1.5
2016-Feb-04 07:33N 47°16' W 122°25'0 0.0
2016-Feb-04 06:33N 47°16' W 122°25'0 0.0
2016-Feb-04 05:33N 47°16' W 122°25'1 1.1
2016-Feb-04 04:30N 47°16' W 122°23'0 0.3
2016-Feb-04 03:33N 47°16' W 122°24'2 2.4
2016-Feb-04 02:33N 47°18' W 122°26'0 0.0
2016-Feb-04 01:33N 47°18' W 122°26'0 0.0
2016-Feb-04 00:33N 47°18' W 122°26'0 0.0
2016-Feb-03 23:33N 47°18' W 122°26'0 0.0
2016-Feb-03 22:33N 47°18' W 122°26'0 0.0
2016-Feb-03 21:28N 47°18' W 122°26'0 0.0
2016-Feb-03 20:33N 47°18' W 122°26'0 0.0
2016-Feb-03 19:33N 47°18' W 122°26'0 0.0
2016-Feb-03 18:26N 47°18' W 122°26'0 0.0
2016-Feb-03 17:33N 47°18' W 122°26'2 1.7
2016-Feb-03 16:33N 47°16' W 122°25'1 0.7
2016-Feb-03 15:33N 47°17' W 122°26'1 0.7
2016-Feb-03 14:33N 47°17' W 122°26'3 2.7
2016-Feb-03 13:33N 47°16' W 122°23'2 1.9
2016-Feb-03 12:33N 47°17' W 122°25'0 0.5
2016-Feb-03 11:33N 47°17' W 122°25'6 5.7
2016-Feb-03 10:33N 47°22' W 122°23'8 7.5
2016-Feb-03 09:33N 47°30' W 122°26'7 6.8
2016-Feb-03 08:33N 47°36' W 122°23'1 1.2
2016-Feb-03 07:33N 47°35' W 122°21'0 0.0
2016-Feb-03 06:33N 47°35' W 122°21'0 0.0
2016-Feb-03 05:33N 47°35' W 122°21'0 0.0
2016-Feb-03 04:33N 47°35' W 122°21'0 0.0
2016-Feb-03 03:33N 47°35' W 122°21'0 0.0
2016-Feb-03 02:33N 47°35' W 122°21'0 0.0
2016-Feb-03 01:33N 47°35' W 122°21'0 0.0
2016-Feb-03 00:33N 47°35' W 122°21'0 0.0
2016-Feb-02 23:33N 47°35' W 122°21'0 0.0
2016-Feb-02 22:33N 47°35' W 122°21'0 0.0
2016-Feb-02 21:34N 47°35' W 122°21'0 0.0
2016-Feb-02 20:33N 47°35' W 122°21'0 0.0
2016-Feb-02 19:33N 47°35' W 122°21'0 0.0
2016-Feb-02 18:33N 47°35' W 122°21'0 0.0
2016-Feb-02 17:33N 47°35' W 122°21'0 0.5
2016-Feb-02 16:33N 47°36' W 122°21'0 0.5
2016-Feb-02 15:34N 47°35' W 122°21'0 0.0
2016-Feb-02 14:33N 47°35' W 122°21'0 0.0
2016-Feb-02 13:33N 47°35' W 122°21'0 0.3
2016-Feb-02 12:33N 47°35' W 122°21'1 0.9
2016-Feb-02 11:33N 47°36' W 122°20'5 4.8
2016-Feb-02 10:33N 47°33' W 122°25'8 8.3
2016-Feb-02 09:33N 47°25' W 122°22'7 7.5
2016-Feb-02 08:33N 47°18' W 122°27'1 1.0
2016-Feb-02 07:32N 47°18' W 122°26'0 0.0
2016-Feb-02 06:33N 47°18' W 122°26'0 0.0
2016-Feb-02 05:33N 47°18' W 122°26'0 0.0
2016-Feb-02 04:33N 47°18' W 122°26'0 0.0
2016-Feb-02 03:33N 47°18' W 122°26'1 1.4
2016-Feb-02 02:33N 47°16' W 122°25'0 0.1
2016-Feb-02 01:33N 47°16' W 122°25'1 1.3
2016-Feb-02 00:33N 47°15' W 122°26'0 0.0
2016-Feb-01 23:33N 47°15' W 122°26'0 0.0
2016-Feb-01 22:33N 47°15' W 122°26'0 0.0
2016-Feb-01 21:33N 47°15' W 122°26'0 0.0
2016-Feb-01 20:33N 47°15' W 122°26'0 0.0
2016-Feb-01 19:33N 47°15' W 122°26'0 0.0
2016-Feb-01 18:33N 47°15' W 122°26'0 0.0
2016-Feb-01 17:33N 47°15' W 122°26'0 0.0
2016-Feb-01 16:33N 47°15' W 122°26'2 1.6
2016-Feb-01 15:33N 47°17' W 122°25'2 1.6
2016-Feb-01 14:33N 47°16' W 122°23'2 1.7
2016-Feb-01 13:33N 47°16' W 122°25'1 1.4
2016-Feb-01 12:33N 47°18' W 122°26'1 1.4
2016-Feb-01 11:33N 47°17' W 122°25'1 1.5
2016-Feb-01 10:33N 47°16' W 122°23'1 1.3
2016-Feb-01 09:33N 47°16' W 122°25'0 0.0
2016-Feb-01 08:33N 47°16' W 122°25'0 0.0
2016-Feb-01 07:33N 47°16' W 122°25'0 0.0
2016-Feb-01 06:33N 47°16' W 122°25'0 0.0
2016-Feb-01 05:33N 47°16' W 122°25'0 0.0
2016-Feb-01 04:33N 47°16' W 122°25'0 0.0
2016-Feb-01 03:33N 47°16' W 122°25'0 0.0
2016-Feb-01 02:33N 47°16' W 122°25'0 0.5
2016-Feb-01 01:33N 47°16' W 122°25'0 0.2
2016-Feb-01 00:21N 47°16' W 122°25'1 0.7
2016-Jan-31 23:31N 47°16' W 122°24'0 0.2
2016-Jan-31 22:33N 47°16' W 122°24'0 0.3
2016-Jan-31 21:33N 47°16' W 122°25'0 0.0
2016-Jan-31 20:30N 47°16' W 122°25'0 0.0
2016-Jan-31 19:30N 47°16' W 122°25'0 0.0
2016-Jan-31 18:25N 47°16' W 122°25'0 0.0
2016-Jan-31 17:33N 47°16' W 122°25'0 0.0
2016-Jan-31 16:33N 47°16' W 122°25'0 0.0
2016-Jan-31 15:33N 47°16' W 122°25'0 0.0
2016-Jan-31 14:33N 47°16' W 122°25'0 0.3
2016-Jan-31 13:33N 47°17' W 122°25'1 1.1
2016-Jan-31 12:33N 47°18' W 122°26'0 0.0
2016-Jan-31 11:22N 47°18' W 122°26'0 0.0
2016-Jan-31 10:33N 47°18' W 122°26'0 0.0
2016-Jan-31 09:30N 47°18' W 122°26'0 0.0
2016-Jan-31 08:33N 47°18' W 122°26'0 0.0
2016-Jan-31 07:25N 47°18' W 122°26'0 0.0
2016-Jan-31 06:24N 47°18' W 122°26'1 1.5
2016-Jan-31 05:33N 47°16' W 122°25'1 0.5
2016-Jan-31 04:33N 47°17' W 122°26'2 1.6
2016-Jan-31 03:33N 47°15' W 122°26'0 0.0
2016-Jan-31 02:32N 47°15' W 122°26'0 0.0
2016-Jan-30 23:28N 47°15' W 122°26'0 0.0
2016-Jan-30 22:33N 47°15' W 122°26'0 0.0
2016-Jan-30 21:33N 47°15' W 122°26'0 0.0
2016-Jan-30 20:33N 47°15' W 122°26'0 0.0
2016-Jan-30 19:33N 47°15' W 122°26'0 0.0
2016-Jan-30 18:33N 47°15' W 122°26'0 0.0
2016-Jan-30 17:33N 47°15' W 122°26'0 0.0
2016-Jan-30 16:33N 47°15' W 122°26'0 0.0
2016-Jan-30 15:33N 47°15' W 122°26'0 0.0
2016-Jan-30 14:33N 47°15' W 122°26'0 0.0
2016-Jan-30 13:33N 47°15' W 122°26'0 0.0
2016-Jan-30 12:32N 47°15' W 122°26'0 0.0
2016-Jan-30 07:32N 47°15' W 122°26'0 0.0
2016-Jan-30 06:26N 47°15' W 122°26'0 0.0
2016-Jan-30 05:29N 47°15' W 122°26'2 0.8
2016-Jan-30 03:24N 47°17' W 122°25'1 1.5
2016-Jan-30 02:30N 47°16' W 122°23'2 1.7
2016-Jan-30 01:26N 47°15' W 122°26'0 0.0
2016-Jan-30 00:24N 47°15' W 122°26'0 0.0
2016-Jan-29 20:33N 47°15' W 122°26'0 0.0
2016-Jan-29 19:30N 47°15' W 122°26'0 0.0
2016-Jan-29 18:21N 47°15' W 122°26'0 0.0
2016-Jan-29 16:19N 47°15' W 122°26'0 0.6
2016-Jan-29 15:33N 47°16' W 122°26'1 1.3
2016-Jan-29 14:27N 47°17' W 122°24'2 0.5
2016-Jan-29 11:19N 47°15' W 122°26'0 0.0
2016-Jan-29 10:17N 47°15' W 122°26'0 0.0
2016-Jan-29 09:33N 47°15' W 122°26'0 0.0
2016-Jan-29 05:30N 47°15' W 122°26'2 0.9
2016-Jan-29 03:33N 47°17' W 122°25'2 1.6
2016-Jan-29 02:33N 47°16' W 122°23'0 0.0
2016-Jan-29 01:20N 47°16' W 122°24'0 0.1
2016-Jan-29 00:33N 47°16' W 122°24'2 0.4
2016-Jan-28 20:21N 47°15' W 122°26'0 0.0
2016-Jan-28 19:33N 47°15' W 122°26'0 0.0
2016-Jan-28 18:28N 47°15' W 122°26'0 0.0
2016-Jan-28 17:19N 47°15' W 122°26'0 0.0
2016-Jan-28 16:32N 47°15' W 122°26'2 1.8
2016-Jan-28 15:27N 47°16' W 122°23'1 1.0
2016-Jan-28 14:33N 47°16' W 122°24'1 1.3
2016-Jan-28 13:31N 47°18' W 122°25'1 0.5
2016-Jan-28 12:33N 47°17' W 122°26'1 1.4
2016-Jan-28 11:33N 47°17' W 122°25'0 0.1
2016-Jan-28 10:33N 47°17' W 122°25'1 0.6
2016-Jan-28 09:32N 47°16' W 122°24'1 0.2
2016-Jan-28 06:24N 47°16' W 122°24'1 0.7
2016-Jan-28 05:33N 47°16' W 122°23'1 0.5
2016-Jan-28 03:28N 47°16' W 122°24'1 0.7
2016-Jan-28 02:33N 47°16' W 122°23'1 1.2
2016-Jan-28 01:31N 47°17' W 122°25'2 1.7
2016-Jan-28 00:32N 47°16' W 122°23'2 1.9
2016-Jan-27 23:32N 47°17' W 122°25'2 1.4
2016-Jan-27 22:21N 47°15' W 122°26'0 0.0
2016-Jan-27 19:26N 47°15' W 122°26'1 1.6
2016-Jan-27 18:33N 47°17' W 122°26'2 1.7
2016-Jan-27 17:33N 47°16' W 122°23'2 1.9
2016-Jan-27 16:33N 47°16' W 122°26'1 0.8
2016-Jan-27 15:22N 47°15' W 122°26'0 0.0
2016-Jan-27 13:06N 47°15' W 122°26'0 0.0
2016-Jan-27 12:32N 47°15' W 122°26'0 0.0
2016-Jan-27 11:28N 47°15' W 122°26'0 0.0
2016-Jan-27 10:27N 47°15' W 122°26'0 0.0
2016-Jan-27 09:32N 47°15' W 122°26'0 0.0
2016-Jan-27 08:32N 47°15' W 122°26'0 0.0
2016-Jan-27 07:24N 47°15' W 122°26'0 0.0
2016-Jan-27 06:30N 47°15' W 122°26'0 0.0
2016-Jan-27 05:33N 47°15' W 122°26'2 1.6
2016-Jan-27 04:16N 47°16' W 122°23'2 2.1
2016-Jan-27 03:33N 47°17' W 122°25'1 1.3
2016-Jan-27 02:33N 47°18' W 122°26'  
Track history (hours):
 
Tides and Currents Weather Stations Pressure Air Temp Water Temp Dewpoint Dewpoint Depression Visibility Wind Speed Wind Dir Waves Ship Positions

Guide

Owner: Crowley Marine Services, SEATTLE, WA. More information available from US FCC via Universal Licensing System and Coast Guard Vessel Documentation Center.

Last reported at 2016-Feb-06 02:28 UTC. Time now 2016-Feb-06 03:03 UTC.
Position N 47°15' W 122°26'.

Length 34 m; draft 5.1 m.

Type: Tug. MMSI: 366759530.

Date/timePositionNaut miles runAvg speedWind from/ knotsBaromVisibWave heightAir tempDewpointWater temp
2016-Feb-06 02:28N 47°15' W 122°26'0 0.0
2016-Feb-06 01:33N 47°15' W 122°26'0 0.0
2016-Feb-06 00:33N 47°15' W 122°26'2 1.6
2016-Feb-05 23:33N 47°16' W 122°24'1 1.0
2016-Feb-05 22:32N 47°16' W 122°23'0 0.2
2016-Feb-05 21:16N 47°16' W 122°23'1 0.7
2016-Feb-05 20:33N 47°15' W 122°23'2 2.1
2016-Feb-05 19:33N 47°15' W 122°26'0 0.0
2016-Feb-05 18:33N 47°15' W 122°26'0 0.0
2016-Feb-05 17:23N 47°15' W 122°26'0 0.0
2016-Feb-05 15:30N 47°15' W 122°26'0 0.0
2016-Feb-05 14:33N 47°15' W 122°26'2 2.0
2016-Feb-05 13:33N 47°16' W 122°23'2 2.3
2016-Feb-05 12:33N 47°17' W 122°26'3 2.7
2016-Feb-05 11:30N 47°15' W 122°23'0 0.0
2016-Feb-05 10:28N 47°15' W 122°23'3 0.4
2016-Feb-05 03:07N 47°18' W 122°26'0 0.7
2016-Feb-05 02:33N 47°17' W 122°26'2 2.0
2016-Feb-05 01:30N 47°16' W 122°24'1 0.6
2016-Feb-05 00:32N 47°15' W 122°23'2 2.4
2016-Feb-04 23:33N 47°16' W 122°26'1 1.2
2016-Feb-04 22:33N 47°15' W 122°26'0 0.0
2016-Feb-04 21:33N 47°15' W 122°26'0 0.0
2016-Feb-04 20:33N 47°15' W 122°26'0 0.0
2016-Feb-04 19:33N 47°15' W 122°26'0 0.0
2016-Feb-04 18:33N 47°15' W 122°26'0 0.0
2016-Feb-04 17:32N 47°15' W 122°26'1 1.4
2016-Feb-04 16:33N 47°17' W 122°26'1 1.3
2016-Feb-04 15:33N 47°16' W 122°24'1 0.5
2016-Feb-04 14:29N 47°17' W 122°25'1 1.5
2016-Feb-04 13:30N 47°16' W 122°23'3 2.9
2016-Feb-04 12:33N 47°18' W 122°26'0 0.3
2016-Feb-04 11:33N 47°18' W 122°26'0 0.0
2016-Feb-04 10:33N 47°18' W 122°26'0 0.0
2016-Feb-04 09:31N 47°18' W 122°26'0 0.4
2016-Feb-04 08:33N 47°18' W 122°26'1 1.5
2016-Feb-04 07:33N 47°16' W 122°25'0 0.0
2016-Feb-04 06:33N 47°16' W 122°25'0 0.0
2016-Feb-04 05:33N 47°16' W 122°25'1 1.1
2016-Feb-04 04:30N 47°16' W 122°23'0 0.3
2016-Feb-04 03:33N 47°16' W 122°24'2 2.4
2016-Feb-04 02:33N 47°18' W 122°26'0 0.0
2016-Feb-04 01:33N 47°18' W 122°26'0 0.0
2016-Feb-04 00:33N 47°18' W 122°26'0 0.0
2016-Feb-03 23:33N 47°18' W 122°26'0 0.0
2016-Feb-03 22:33N 47°18' W 122°26'0 0.0
2016-Feb-03 21:28N 47°18' W 122°26'0 0.0
2016-Feb-03 20:33N 47°18' W 122°26'0 0.0
2016-Feb-03 19:33N 47°18' W 122°26'0 0.0
2016-Feb-03 18:26N 47°18' W 122°26'0 0.0
2016-Feb-03 17:33N 47°18' W 122°26'2 1.7
2016-Feb-03 16:33N 47°16' W 122°25'1 0.7
2016-Feb-03 15:33N 47°17' W 122°26'1 0.7
2016-Feb-03 14:33N 47°17' W 122°26'3 2.7
2016-Feb-03 13:33N 47°16' W 122°23'2 1.9
2016-Feb-03 12:33N 47°17' W 122°25'0 0.5
2016-Feb-03 11:33N 47°17' W 122°25'6 5.7
2016-Feb-03 10:33N 47°22' W 122°23'8 7.5
2016-Feb-03 09:33N 47°30' W 122°26'7 6.8
2016-Feb-03 08:33N 47°36' W 122°23'1 1.2
2016-Feb-03 07:33N 47°35' W 122°21'0 0.0
2016-Feb-03 06:33N 47°35' W 122°21'0 0.0
2016-Feb-03 05:33N 47°35' W 122°21'0 0.0
2016-Feb-03 04:33N 47°35' W 122°21'0 0.0
2016-Feb-03 03:33N 47°35' W 122°21'0 0.0
2016-Feb-03 02:33N 47°35' W 122°21'0 0.0
2016-Feb-03 01:33N 47°35' W 122°21'0 0.0
2016-Feb-03 00:33N 47°35' W 122°21'0 0.0
2016-Feb-02 23:33N 47°35' W 122°21'0 0.0
2016-Feb-02 22:33N 47°35' W 122°21'0 0.0
2016-Feb-02 21:34N 47°35' W 122°21'0 0.0
2016-Feb-02 20:33N 47°35' W 122°21'0 0.0
2016-Feb-02 19:33N 47°35' W 122°21'0 0.0
2016-Feb-02 18:33N 47°35' W 122°21'0 0.0
2016-Feb-02 17:33N 47°35' W 122°21'0 0.5
2016-Feb-02 16:33N 47°36' W 122°21'0 0.5
2016-Feb-02 15:34N 47°35' W 122°21'0 0.0
2016-Feb-02 14:33N 47°35' W 122°21'0 0.0
2016-Feb-02 13:33N 47°35' W 122°21'0 0.3
2016-Feb-02 12:33N 47°35' W 122°21'1 0.9
2016-Feb-02 11:33N 47°36' W 122°20'5 4.8
2016-Feb-02 10:33N 47°33' W 122°25'8 8.3
2016-Feb-02 09:33N 47°25' W 122°22'7 7.5
2016-Feb-02 08:33N 47°18' W 122°27'1 1.0
2016-Feb-02 07:32N 47°18' W 122°26'0 0.0
2016-Feb-02 06:33N 47°18' W 122°26'0 0.0
2016-Feb-02 05:33N 47°18' W 122°26'0 0.0
2016-Feb-02 04:33N 47°18' W 122°26'0 0.0
2016-Feb-02 03:33N 47°18' W 122°26'1 1.4
2016-Feb-02 02:33N 47°16' W 122°25'0 0.1
2016-Feb-02 01:33N 47°16' W 122°25'1 1.3
2016-Feb-02 00:33N 47°15' W 122°26'0 0.0
2016-Feb-01 23:33N 47°15' W 122°26'0 0.0
2016-Feb-01 22:33N 47°15' W 122°26'0 0.0
2016-Feb-01 21:33N 47°15' W 122°26'0 0.0
2016-Feb-01 20:33N 47°15' W 122°26'0 0.0
2016-Feb-01 19:33N 47°15' W 122°26'0 0.0
2016-Feb-01 18:33N 47°15' W 122°26'0 0.0
2016-Feb-01 17:33N 47°15' W 122°26'0 0.0
2016-Feb-01 16:33N 47°15' W 122°26'2 1.6
2016-Feb-01 15:33N 47°17' W 122°25'2 1.6
2016-Feb-01 14:33N 47°16' W 122°23'2 1.7
2016-Feb-01 13:33N 47°16' W 122°25'1 1.4
2016-Feb-01 12:33N 47°18' W 122°26'1 1.4
2016-Feb-01 11:33N 47°17' W 122°25'1 1.5
2016-Feb-01 10:33N 47°16' W 122°23'1 1.3
2016-Feb-01 09:33N 47°16' W 122°25'0 0.0
2016-Feb-01 08:33N 47°16' W 122°25'0 0.0
2016-Feb-01 07:33N 47°16' W 122°25'0 0.0
2016-Feb-01 06:33N 47°16' W 122°25'0 0.0
2016-Feb-01 05:33N 47°16' W 122°25'0 0.0
2016-Feb-01 04:33N 47°16' W 122°25'0 0.0
2016-Feb-01 03:33N 47°16' W 122°25'0 0.0
2016-Feb-01 02:33N 47°16' W 122°25'0 0.5
2016-Feb-01 01:33N 47°16' W 122°25'0 0.2
2016-Feb-01 00:21N 47°16' W 122°25'1 0.7
2016-Jan-31 23:31N 47°16' W 122°24'0 0.2
2016-Jan-31 22:33N 47°16' W 122°24'0 0.3
2016-Jan-31 21:33N 47°16' W 122°25'0 0.0
2016-Jan-31 20:30N 47°16' W 122°25'0 0.0
2016-Jan-31 19:30N 47°16' W 122°25'0 0.0
2016-Jan-31 18:25N 47°16' W 122°25'0 0.0
2016-Jan-31 17:33N 47°16' W 122°25'0 0.0
2016-Jan-31 16:33N 47°16' W 122°25'0 0.0
2016-Jan-31 15:33N 47°16' W 122°25'0 0.0
2016-Jan-31 14:33N 47°16' W 122°25'0 0.3
2016-Jan-31 13:33N 47°17' W 122°25'1 1.1
2016-Jan-31 12:33N 47°18' W 122°26'0 0.0
2016-Jan-31 11:22N 47°18' W 122°26'0 0.0
2016-Jan-31 10:33N 47°18' W 122°26'0 0.0
2016-Jan-31 09:30N 47°18' W 122°26'0 0.0
2016-Jan-31 08:33N 47°18' W 122°26'0 0.0
2016-Jan-31 07:25N 47°18' W 122°26'0 0.0
2016-Jan-31 06:24N 47°18' W 122°26'1 1.5
2016-Jan-31 05:33N 47°16' W 122°25'1 0.5
2016-Jan-31 04:33N 47°17' W 122°26'2 1.6
2016-Jan-31 03:33N 47°15' W 122°26'0 0.0
2016-Jan-31 02:32N 47°15' W 122°26'0 0.0
2016-Jan-30 23:28N 47°15' W 122°26'0 0.0
2016-Jan-30 22:33N 47°15' W 122°26'0 0.0
2016-Jan-30 21:33N 47°15' W 122°26'0 0.0
2016-Jan-30 20:33N 47°15' W 122°26'0 0.0
2016-Jan-30 19:33N 47°15' W 122°26'0 0.0
2016-Jan-30 18:33N 47°15' W 122°26'0 0.0
2016-Jan-30 17:33N 47°15' W 122°26'0 0.0
2016-Jan-30 16:33N 47°15' W 122°26'0 0.0
2016-Jan-30 15:33N 47°15' W 122°26'0 0.0
2016-Jan-30 14:33N 47°15' W 122°26'0 0.0
2016-Jan-30 13:33N 47°15' W 122°26'0 0.0
2016-Jan-30 12:32N 47°15' W 122°26'0 0.0
2016-Jan-30 07:32N 47°15' W 122°26'0 0.0
2016-Jan-30 06:26N 47°15' W 122°26'0 0.0
2016-Jan-30 05:29N 47°15' W 122°26'2 0.8
2016-Jan-30 03:24N 47°17' W 122°25'1 1.5
2016-Jan-30 02:30N 47°16' W 122°23'2 1.7
2016-Jan-30 01:26N 47°15' W 122°26'0 0.0
2016-Jan-30 00:24N 47°15' W 122°26'0 0.0
2016-Jan-29 20:33N 47°15' W 122°26'0 0.0
2016-Jan-29 19:30N 47°15' W 122°26'0 0.0
2016-Jan-29 18:21N 47°15' W 122°26'0 0.0
2016-Jan-29 16:19N 47°15' W 122°26'0 0.6
2016-Jan-29 15:33N 47°16' W 122°26'1 1.3
2016-Jan-29 14:27N 47°17' W 122°24'2 0.5
2016-Jan-29 11:19N 47°15' W 122°26'0 0.0
2016-Jan-29 10:17N 47°15' W 122°26'0 0.0
2016-Jan-29 09:33N 47°15' W 122°26'0 0.0
2016-Jan-29 05:30N 47°15' W 122°26'2 0.9
2016-Jan-29 03:33N 47°17' W 122°25'2 1.6
2016-Jan-29 02:33N 47°16' W 122°23'0 0.0
2016-Jan-29 01:20N 47°16' W 122°24'0 0.1
2016-Jan-29 00:33N 47°16' W 122°24'2 0.4
2016-Jan-28 20:21N 47°15' W 122°26'0 0.0
2016-Jan-28 19:33N 47°15' W 122°26'0 0.0
2016-Jan-28 18:28N 47°15' W 122°26'0 0.0
2016-Jan-28 17:19N 47°15' W 122°26'0 0.0
2016-Jan-28 16:32N 47°15' W 122°26'2 1.8
2016-Jan-28 15:27N 47°16' W 122°23'1 1.0
2016-Jan-28 14:33N 47°16' W 122°24'1 1.3
2016-Jan-28 13:31N 47°18' W 122°25'1 0.5
2016-Jan-28 12:33N 47°17' W 122°26'1 1.4
2016-Jan-28 11:33N 47°17' W 122°25'0 0.1
2016-Jan-28 10:33N 47°17' W 122°25'1 0.6
2016-Jan-28 09:32N 47°16' W 122°24'1 0.2
2016-Jan-28 06:24N 47°16' W 122°24'1 0.7
2016-Jan-28 05:33N 47°16' W 122°23'1 0.5
2016-Jan-28 03:28N 47°16' W 122°24'1 0.7
2016-Jan-28 02:33N 47°16' W 122°23'1 1.2
2016-Jan-28 01:31N 47°17' W 122°25'2 1.7
2016-Jan-28 00:32N 47°16' W 122°23'2 1.9
2016-Jan-27 23:32N 47°17' W 122°25'2 1.4
2016-Jan-27 22:21N 47°15' W 122°26'0 0.0
2016-Jan-27 19:26N 47°15' W 122°26'1 1.6
2016-Jan-27 18:33N 47°17' W 122°26'2 1.7
2016-Jan-27 17:33N 47°16' W 122°23'2 1.9
2016-Jan-27 16:33N 47°16' W 122°26'1 0.8
2016-Jan-27 15:22N 47°15' W 122°26'0 0.0
2016-Jan-27 13:06N 47°15' W 122°26'0 0.0
2016-Jan-27 12:32N 47°15' W 122°26'0 0.0
2016-Jan-27 11:28N 47°15' W 122°26'0 0.0
2016-Jan-27 10:27N 47°15' W 122°26'0 0.0
2016-Jan-27 09:32N 47°15' W 122°26'0 0.0
2016-Jan-27 08:32N 47°15' W 122°26'0 0.0
2016-Jan-27 07:24N 47°15' W 122°26'0 0.0
2016-Jan-27 06:30N 47°15' W 122°26'0 0.0
2016-Jan-27 05:33N 47°15' W 122°26'2 1.6
2016-Jan-27 04:16N 47°16' W 122°23'2 2.1
2016-Jan-27 03:33N 47°17' W 122°25'1 1.3
2016-Jan-27 02:33N 47°18' W 122°26'  

Dump ship's entire track history